Time;durP1;ratioP1;P1;durP2;ratioP2;P2;SDS_P1;SDS_P2;PMS_P1;PMS_P2;Temp;Humidity;BMP_temperature;BMP_pressure;BME280_temperature;BME280_humidity;BME280_pressure;Samples;Min_cycle;Max_cycle;Signal;HPM_P1;HPM_P2
2023/07/06 00:00:31;;;;;;;;;28.75;26.75;;;;;-143.47;100.00;63865.75;2119295;28;8769;-65
2023/07/06 00:01:32;;;;;;;;;28.00;27.00;;;;;-143.47;100.00;63865.75;2109718;28;8739;-65
2023/07/06 00:02:33;;;;;;;;;29.00;28.00;;;;;-143.47;100.00;63865.75;2101930;28;8734;-64
2023/07/06 00:03:33;;;;;;;;;24.25;19.00;;;;;-143.47;100.00;63865.75;2100784;28;8765;-65
2023/07/06 00:04:36;;;;;;;;;26.00;23.00;;;;;-143.47;100.00;63865.75;2109649;28;8759;-65
2023/07/06 00:05:43;;;;;;;;;33.40;29.60;;;;;-143.47;100.00;63865.75;2110119;28;8720;-65
2023/07/06 00:06:43;;;;;;;;;42.80;37.20;;;;;-143.47;100.00;63865.75;2102069;28;8777;-65
2023/07/06 00:07:43;;;;;;;;;55.75;44.75;;;;;-143.47;100.00;63865.75;2109184;28;8755;-65
2023/07/06 00:08:44;;;;;;;;;48.75;40.00;;;;;-143.47;100.00;63865.75;2119181;28;9268;-64
2023/07/06 00:09:45;;;;;;;;;28.75;26.00;;;;;-143.47;100.00;63865.75;2119240;28;8841;-64
2023/07/06 00:10:49;;;;;;;;;27.60;25.40;;;;;-143.47;100.00;63865.75;2119286;28;9121;-66
2023/07/06 00:11:49;;;;;;;;;25.20;24.40;;;;;-143.47;100.00;63865.75;2118989;28;8702;-65
2023/07/06 00:12:50;;;;;;;;;26.50;24.25;;;;;-143.47;100.00;63865.75;2119216;28;8881;-65
2023/07/06 00:13:50;;;;;;;;;23.25;20.50;;;;;-143.47;100.00;63865.75;2119165;28;8729;-65
2023/07/06 00:14:52;;;;;;;;;22.40;20.00;;;;;-143.47;100.00;63865.75;2115880;28;8722;-65
2023/07/06 00:15:53;;;;;;;;;35.40;30.40;;;;;-143.47;100.00;63865.75;2110855;28;8790;-68
2023/07/06 00:17:10;;;;;;;;;29.00;25.75;;;;;-143.47;100.00;63865.75;2119251;28;8869;-63
2023/07/06 00:18:12;;;;;;;;;20.80;20.20;;;;;-143.47;100.00;63865.75;2118832;28;8734;-62
2023/07/06 00:19:18;;;;;;;;;26.80;25.60;;;;;-143.47;100.00;63865.75;2109923;28;8711;-62
2023/07/06 00:20:18;;;;;;;;;27.60;26.00;;;;;-143.47;100.00;63865.75;2110631;28;8680;-62
2023/07/06 00:21:18;;;;;;;;;32.25;28.50;;;;;-143.47;100.00;63865.75;2118811;28;8781;-63
2023/07/06 00:22:19;;;;;;;;;28.75;28.00;;;;;-143.47;100.00;63865.75;2118387;28;9237;-62
2023/07/06 00:23:20;;;;;;;;;28.75;25.75;;;;;-143.47;100.00;63865.75;2118996;28;8756;-62
2023/07/06 00:24:21;;;;;;;;;35.20;29.40;;;;;-143.47;100.00;63865.75;2119049;28;9307;-63
2023/07/06 00:25:21;;;;;;;;;33.00;28.00;;;;;-143.47;100.00;63865.75;2118634;28;8741;-64
2023/07/06 00:26:21;;;;;;;;;29.75;27.75;;;;;-143.47;100.00;63865.75;2119115;28;8776;-63
2023/07/06 00:27:22;;;;;;;;;34.25;29.75;;;;;-143.47;100.00;63865.75;2118932;28;8785;-63
2023/07/06 00:28:28;;;;;;;;;55.25;44.50;;;;;-143.47;100.00;63865.75;2118802;28;8775;-63
2023/07/06 00:29:33;;;;;;;;;46.40;38.00;;;;;-143.47;100.00;63865.75;2119095;28;8713;-64
2023/07/06 00:32:03;;;;;;;;;49.40;40.80;;;;;-143.47;100.00;63865.75;2101704;28;8693;-66
2023/07/06 00:33:04;;;;;;;;;56.60;45.80;;;;;-143.47;100.00;63865.75;2102153;28;8744;-66
2023/07/06 00:34:04;;;;;;;;;57.25;45.00;;;;;-143.47;100.00;63865.75;2108781;28;9318;-67
2023/07/06 00:35:05;;;;;;;;;67.50;54.50;;;;;-143.47;100.00;63865.75;2118851;28;11577;-65
2023/07/06 00:36:06;;;;;;;;;40.80;34.40;;;;;-143.47;100.00;63865.75;2084259;28;8910;-67
2023/07/06 00:37:07;;;;;;;;;19.40;18.40;;;;;-143.47;100.00;63865.75;2084438;28;8695;-66
2023/07/06 00:38:13;;;;;;;;;19.00;15.50;;;;;-143.47;100.00;63865.75;2118888;28;8821;-67
2023/07/06 00:39:15;;;;;;;;;34.60;31.80;;;;;-143.47;100.00;63865.75;2119080;28;8724;-66
2023/07/06 00:40:16;;;;;;;;;42.40;35.80;;;;;-143.47;100.00;63865.75;2118766;28;8714;-62
2023/07/06 00:41:17;;;;;;;;;28.00;27.80;;;;;-143.47;100.00;63865.75;2118624;28;8678;-61
2023/07/06 00:42:22;;;;;;;;;28.00;26.50;;;;;-143.47;100.00;63865.75;2110076;28;8758;-61
2023/07/06 00:43:27;;;;;;;;;32.60;30.20;;;;;-143.47;100.00;63865.75;2115291;28;8686;-64
2023/07/06 00:44:49;;;;;;;;;32.00;28.00;;;;;-143.47;100.00;63865.75;2119046;28;8713;-64
2023/07/06 00:45:52;;;;;;;;;19.40;18.20;;;;;-143.47;100.00;63865.75;2110047;28;8675;-71
2023/07/06 00:46:53;;;;;;;;;13.20;13.20;;;;;-143.47;100.00;63865.75;2108237;28;8812;-69
2023/07/06 00:47:59;;;;;;;;;16.75;15.00;;;;;-143.47;100.00;63865.75;2110675;28;8758;-66
2023/07/06 00:49:02;;;;;;;;;14.40;13.40;;;;;-143.47;100.00;63865.75;2110526;28;8729;-74
2023/07/06 00:50:08;;;;;;;;;13.20;13.00;;;;;-143.47;100.00;63865.75;2110450;28;8801;-73
2023/07/06 00:51:16;;;;;;;;;12.20;12.20;;;;;-143.47;100.00;63865.75;2112459;28;8700;-73
2023/07/06 00:52:17;;;;;;;;;10.00;9.20;;;;;-143.47;100.00;63865.75;2118563;28;8709;-74
2023/07/06 00:53:19;;;;;;;;;12.40;11.80;;;;;-143.47;100.00;63865.75;2112622;28;8735;-64
2023/07/06 00:54:19;;;;;;;;;15.00;12.60;;;;;-143.47;100.00;63865.75;2111914;28;8757;-65
2023/07/06 00:55:26;;;;;;;;;15.75;12.75;;;;;-143.47;100.00;63865.75;2118850;28;8749;-65
2023/07/06 00:56:32;;;;;;;;;10.20;9.60;;;;;-143.47;100.00;63865.75;2109957;28;8684;-65
2023/07/06 00:57:32;;;;;;;;;11.20;10.20;;;;;-143.47;100.00;63865.75;2110297;28;9263;-64
2023/07/06 00:58:42;;;;;;;;;11.00;10.00;;;;;-143.47;100.00;63865.75;2118918;28;8765;-65
2023/07/06 00:59:44;;;;;;;;;9.60;9.60;;;;;-143.47;100.00;63865.75;2112412;28;8732;-65
2023/07/06 01:00:47;;;;;;;;;11.20;10.40;;;;;-143.47;100.00;63865.75;2110168;28;8674;-64
2023/07/06 01:01:48;;;;;;;;;10.00;9.40;;;;;-143.47;100.00;63865.75;2110057;28;8668;-61
2023/07/06 01:02:57;;;;;;;;;6.75;6.75;;;;;-143.47;100.00;63865.75;2112865;28;8757;-66
2023/07/06 01:04:01;;;;;;;;;8.40;8.00;;;;;-143.47;100.00;63865.75;2111008;28;8852;-64
2023/07/06 01:05:04;;;;;;;;;11.40;10.00;;;;;-143.47;100.00;63865.75;2118827;28;8678;-63
2023/07/06 01:06:05;;;;;;;;;10.00;10.00;;;;;-143.47;100.00;63865.75;2119063;28;8721;-64
2023/07/06 01:07:07;;;;;;;;;14.75;11.00;;;;;-143.47;100.00;63865.75;2118792;28;8752;-64
2023/07/06 01:08:16;;;;;;;;;8.00;7.40;;;;;-143.47;100.00;63865.75;2111476;28;8839;-64
2023/07/06 01:09:20;;;;;;;;;11.00;11.00;;;;;-143.47;100.00;63865.75;2113621;28;8737;-65
2023/07/06 01:10:21;;;;;;;;;14.60;10.60;;;;;-143.47;100.00;63865.75;2117879;28;8700;-65
2023/07/06 01:11:21;;;;;;;;;10.00;9.50;;;;;-143.47;100.00;63865.75;2099067;28;8887;-65
2023/07/06 01:12:24;;;;;;;;;9.50;9.50;;;;;-143.47;100.00;63865.75;2101273;28;8797;-66
2023/07/06 01:13:25;;;;;;;;;11.60;10.20;;;;;-143.47;100.00;63865.75;2110866;28;8690;-66
2023/07/06 01:14:26;;;;;;;;;8.20;8.20;;;;;-143.47;100.00;63865.75;2116255;28;9305;-68
2023/07/06 01:15:32;;;;;;;;;7.60;7.60;;;;;-143.47;100.00;63865.75;2112413;28;8796;-65
2023/07/06 01:16:37;;;;;;;;;7.40;7.40;;;;;-143.47;100.00;63865.75;2118807;28;8753;-66
2023/07/06 01:17:47;;;;;;;;;8.00;8.00;;;;;-143.47;100.00;63865.75;2118600;28;9409;-65
2023/07/06 01:19:03;;;;;;;;;8.80;8.80;;;;;-143.47;100.00;63865.75;2113311;28;8768;-66
2023/07/06 01:20:20;;;;;;;;;9.80;7.80;;;;;-143.47;100.00;63865.75;2120060;28;8733;-65
2023/07/06 01:21:31;;;;;;;;;7.60;7.60;;;;;-143.47;100.00;63865.75;2103697;28;8708;-65
2023/07/06 01:23:10;;;;;;;;;8.40;8.40;;;;;-143.47;100.00;63865.75;2113971;28;8839;-65
2023/07/06 01:24:36;;;;;;;;;8.00;8.00;;;;;-143.47;100.00;63865.75;2120475;28;9203;-65
2023/07/06 01:25:55;;;;;;;;;8.80;8.00;;;;;-143.47;100.00;63865.75;2081861;28;8783;-65
2023/07/06 01:27:20;;;;;;;;;11.20;8.80;;;;;-143.47;100.00;63865.75;2077909;28;8698;-65
2023/07/06 01:28:30;;;;;;;;;10.60;10.40;;;;;-143.47;100.00;63865.75;2077276;28;8744;-65
2023/07/06 01:29:38;;;;;;;;;9.60;8.60;;;;;-143.47;100.00;63865.75;2078336;28;8747;-66
2023/07/06 01:30:57;;;;;;;;;8.60;8.60;;;;;-143.47;100.00;63865.75;2077337;28;8769;-66
2023/07/06 01:32:02;;;;;;;;;8.00;6.80;;;;;-143.47;100.00;63865.75;2078644;28;8721;-66
2023/07/06 01:33:14;;;;;;;;;6.80;6.40;;;;;-143.47;100.00;63865.75;2085859;28;8858;-66
2023/07/06 01:34:20;;;;;;;;;8.40;6.80;;;;;-143.47;100.00;63865.75;2083670;28;8800;-66
2023/07/06 01:35:47;;;;;;;;;6.20;6.20;;;;;-143.47;100.00;63865.75;2084030;28;8718;-66
2023/07/06 01:37:25;;;;;;;;;11.00;10.40;;;;;-143.47;100.00;63865.75;2077808;28;8706;-67
2023/07/06 01:38:25;;;;;;;;;7.80;7.80;;;;;-143.47;100.00;63865.75;2085818;28;8781;-66
2023/07/06 01:39:26;;;;;;;;;7.00;7.00;;;;;-143.47;100.00;63865.75;2085887;28;8743;-66
2023/07/06 01:40:26;;;;;;;;;9.00;9.00;;;;;-143.47;100.00;63865.75;2085647;28;8807;-67
2023/07/06 01:41:27;;;;;;;;;10.25;9.25;;;;;-143.47;100.00;63865.75;2083508;28;8778;-66
2023/07/06 01:42:29;;;;;;;;;9.00;8.25;;;;;-143.47;100.00;63865.75;2077486;28;8782;-66
2023/07/06 01:43:30;;;;;;;;;10.00;7.60;;;;;-143.47;100.00;63865.75;2082617;28;8767;-66
2023/07/06 01:44:31;;;;;;;;;9.75;8.75;;;;;-143.47;100.00;63865.75;2086151;28;8770;-65
2023/07/06 01:45:32;;;;;;;;;10.40;9.20;;;;;-143.47;100.00;63865.75;2086019;28;8734;-66
2023/07/06 01:46:33;;;;;;;;;9.00;9.00;;;;;-143.47;100.00;63865.75;2085370;28;8724;-65
2023/07/06 01:47:39;;;;;;;;;9.50;7.50;;;;;-143.47;100.00;63865.75;2085915;28;8813;-66
2023/07/06 01:48:39;;;;;;;;;8.00;8.00;;;;;-143.47;100.00;63865.75;2085568;28;8933;-65
2023/07/06 01:49:40;;;;;;;;;7.75;7.50;;;;;-143.47;100.00;63865.75;2085168;28;8825;-65
2023/07/06 01:50:56;;;;;;;;;8.00;7.40;;;;;-143.47;100.00;63865.75;2084288;28;8714;-66
2023/07/06 01:52:37;;;;;;;;;8.60;8.60;;;;;-143.47;100.00;63865.75;2085002;28;8763;-65
2023/07/06 01:53:59;;;;;;;;;7.40;7.00;;;;;-143.47;100.00;63865.75;2044842;29;8807;-65
2023/07/06 01:55:11;;;;;;;;;7.80;7.20;;;;;-143.47;100.00;63865.75;2044952;29;8736;-66
2023/07/06 01:56:19;;;;;;;;;9.20;8.60;;;;;-143.47;100.00;63865.75;2045234;29;8740;-65
2023/07/06 01:57:31;;;;;;;;;9.80;9.80;;;;;-143.47;100.00;63865.75;2044542;29;8732;-65
2023/07/06 01:58:44;;;;;;;;;8.80;8.00;;;;;-143.47;100.00;63865.75;2044579;29;8773;-65
2023/07/06 01:59:49;;;;;;;;;10.80;8.00;;;;;-143.47;100.00;63865.75;2044906;29;8975;-64
2023/07/06 02:00:55;;;;;;;;;10.00;8.50;;;;;-143.47;100.00;63865.75;2044947;29;8813;-65
2023/07/06 02:02:01;;;;;;;;;10.40;10.40;;;;;-143.47;100.00;63865.75;2037111;29;8771;-65
2023/07/06 02:03:05;;;;;;;;;7.75;7.00;;;;;-143.47;100.00;63865.75;2049932;28;9452;-66
2023/07/06 02:04:07;;;;;;;;;8.00;8.00;;;;;-143.47;100.00;63865.75;2069183;28;8772;-66
2023/07/06 02:05:08;;;;;;;;;8.00;8.00;;;;;-143.47;100.00;63865.75;2068958;28;8707;-65
2023/07/06 02:06:11;;;;;;;;;8.00;7.50;;;;;-143.47;100.00;63865.75;2069008;28;8784;-65
2023/07/06 02:07:13;;;;;;;;;10.60;10.40;;;;;-143.47;100.00;63865.75;2069087;28;8760;-63
2023/07/06 02:08:14;;;;;;;;;8.40;8.40;;;;;-143.47;100.00;63865.75;2065154;28;8875;-64
2023/07/06 02:09:18;;;;;;;;;10.00;9.20;;;;;-143.47;100.00;63865.75;2062884;28;8746;-64
2023/07/06 02:10:19;;;;;;;;;9.80;8.40;;;;;-143.47;100.00;63865.75;2060993;28;8715;-63
2023/07/06 02:11:24;;;;;;;;;7.60;6.60;;;;;-143.47;100.00;63865.75;2061210;28;8712;-63
2023/07/06 02:12:24;;;;;;;;;11.40;11.00;;;;;-143.47;100.00;63865.75;2068831;28;8752;-64
2023/07/06 02:13:25;;;;;;;;;8.25;8.25;;;;;-143.47;100.00;63865.75;2069183;28;9134;-63
2023/07/06 02:14:25;;;;;;;;;7.00;6.50;;;;;-143.47;100.00;63865.75;2069081;28;8768;-63
2023/07/06 02:15:27;;;;;;;;;9.25;9.25;;;;;-143.47;100.00;63865.75;2062010;28;8755;-63
2023/07/06 02:16:28;;;;;;;;;12.60;10.00;;;;;-143.47;100.00;63865.75;2068660;28;8723;-63
2023/07/06 02:17:29;;;;;;;;;8.80;8.80;;;;;-143.47;100.00;63865.75;2068894;28;8760;-64
2023/07/06 02:18:29;;;;;;;;;9.00;8.75;;;;;-143.47;100.00;63865.75;2069024;28;8764;-63
2023/07/06 02:19:29;;;;;;;;;8.67;7.33;;;;;-143.47;100.00;63865.75;2069260;28;8812;-63
2023/07/06 02:20:30;;;;;;;;;8.75;8.75;;;;;-143.47;100.00;63865.75;2068997;28;9359;-63
2023/07/06 02:21:32;;;;;;;;;9.50;9.00;;;;;-143.47;100.00;63865.75;2068905;28;8776;-62
2023/07/06 02:22:32;;;;;;;;;10.00;10.00;;;;;-143.47;100.00;63865.75;2068776;28;8802;-64
2023/07/06 02:23:32;;;;;;;;;8.00;8.00;;;;;-143.47;100.00;63865.75;2065093;28;8832;-64
2023/07/06 02:24:33;;;;;;;;;8.33;8.00;;;;;-143.47;100.00;63865.75;2060825;28;9322;-64
2023/07/06 02:25:33;;;;;;;;;8.50;8.50;;;;;-143.47;100.00;63865.75;2063924;28;8812;-64
2023/07/06 02:26:34;;;;;;;;;3.75;3.75;;;;;-143.47;100.00;63865.75;2069088;28;8760;-64
2023/07/06 02:27:34;;;;;;;;;7.25;7.25;;;;;-143.47;100.00;63865.75;2070695;28;11776;-64
2023/07/06 02:28:35;;;;;;;;;9.00;9.00;;;;;-143.47;100.00;63865.75;2077082;28;8773;-64
2023/07/06 02:29:36;;;;;;;;;7.50;7.50;;;;;-143.47;100.00;63865.75;2084740;28;8803;-63
2023/07/06 02:30:37;;;;;;;;;8.60;6.80;;;;;-143.47;100.00;63865.75;2111860;28;8734;-64
2023/07/06 02:31:38;;;;;;;;;7.80;7.40;;;;;-143.47;100.00;63865.75;2119426;27;8717;-64
2023/07/06 02:32:39;;;;;;;;;8.75;8.25;;;;;-143.47;100.00;63865.75;2119671;28;8734;-64
2023/07/06 02:33:39;;;;;;;;;7.80;7.80;;;;;-143.47;100.00;63865.75;2110883;28;8728;-63
2023/07/06 02:34:40;;;;;;;;;8.00;6.00;;;;;-143.47;100.00;63865.75;2093147;28;8755;-63
2023/07/06 02:35:40;;;;;;;;;6.00;5.50;;;;;-143.47;100.00;63865.75;2101936;28;8795;-64
2023/07/06 02:36:41;;;;;;;;;7.50;7.50;;;;;-143.47;100.00;63865.75;2100293;28;8800;-63
2023/07/06 02:37:41;;;;;;;;;9.50;8.50;;;;;-143.47;100.00;63865.75;2093382;28;8771;-63
2023/07/06 02:38:42;;;;;;;;;7.00;7.00;;;;;-143.47;100.00;63865.75;2097723;28;8788;-63
2023/07/06 02:39:42;;;;;;;;;7.50;6.75;;;;;-143.47;100.00;63865.75;2101777;28;8738;-62
2023/07/06 02:40:43;;;;;;;;;8.00;8.00;;;;;-143.47;100.00;63865.75;2101863;28;8802;-63
2023/07/06 02:41:43;;;;;;;;;7.25;7.25;;;;;-143.47;100.00;63865.75;2095725;28;8870;-65
2023/07/06 02:42:43;;;;;;;;;7.00;6.25;;;;;-143.47;100.00;63865.75;2093389;28;8784;-63
2023/07/06 02:43:43;;;;;;;;;12.25;9.00;;;;;-143.47;100.00;63865.75;2092276;28;8910;-65
2023/07/06 02:44:44;;;;;;;;;6.75;6.75;;;;;-143.47;100.00;63865.75;2093645;28;8809;-63
2023/07/06 02:45:47;;;;;;;;;6.25;6.25;;;;;-143.47;100.00;63865.75;2101930;28;8749;-63
2023/07/06 02:46:48;;;;;;;;;9.00;9.00;;;;;-143.47;100.00;63865.75;2101709;28;8888;-64
2023/07/06 02:47:48;;;;;;;;;7.80;7.80;;;;;-143.47;100.00;63865.75;2100874;28;8690;-64
2023/07/06 02:48:50;;;;;;;;;4.25;4.00;;;;;-143.47;100.00;63865.75;2093623;28;8856;-63
2023/07/06 02:49:50;;;;;;;;;6.00;5.60;;;;;-143.47;100.00;63865.75;2092775;28;8783;-64
2023/07/06 02:50:51;;;;;;;;;7.50;7.25;;;;;-143.47;100.00;63865.75;2093655;28;8813;-63
2023/07/06 02:51:51;;;;;;;;;7.25;7.25;;;;;-143.47;100.00;63865.75;2093067;28;9257;-63
2023/07/06 02:52:51;;;;;;;;;6.00;6.00;;;;;-143.47;100.00;63865.75;2093450;28;8886;-63
2023/07/06 02:53:52;;;;;;;;;6.50;6.00;;;;;-143.47;100.00;63865.75;2093425;28;8816;-63
2023/07/06 02:54:53;;;;;;;;;7.50;6.50;;;;;-143.47;100.00;63865.75;2093462;28;8760;-63
2023/07/06 02:55:54;;;;;;;;;10.40;8.20;;;;;-143.47;100.00;63865.75;2101325;28;8757;-65
2023/07/06 02:56:57;;;;;;;;;8.50;8.50;;;;;-143.47;100.00;63865.75;2100227;28;8758;-63
2023/07/06 02:57:57;;;;;;;;;7.40;7.40;;;;;-143.47;100.00;63865.75;2097817;28;8700;-63
2023/07/06 02:58:58;;;;;;;;;8.00;7.75;;;;;-143.47;100.00;63865.75;2093580;28;8835;-64
2023/07/06 02:59:58;;;;;;;;;10.00;8.00;;;;;-143.47;100.00;63865.75;2100332;28;8765;-64
2023/07/06 03:00:58;;;;;;;;;11.75;9.75;;;;;-143.47;100.00;63865.75;2101588;28;8761;-64
2023/07/06 03:01:59;;;;;;;;;8.75;8.75;;;;;-143.47;100.00;63865.75;2101484;28;8791;-64
2023/07/06 03:02:59;;;;;;;;;10.25;10.25;;;;;-143.47;100.00;63865.75;2101645;28;8815;-64
2023/07/06 03:03:59;;;;;;;;;8.75;7.50;;;;;-143.47;100.00;63865.75;2101168;28;8768;-64
2023/07/06 03:05:00;;;;;;;;;8.00;8.00;;;;;-143.47;100.00;63865.75;2096721;28;8809;-64
2023/07/06 03:06:02;;;;;;;;;11.00;11.00;;;;;-143.47;100.00;63865.75;2095909;28;8804;-65
2023/07/06 03:07:04;;;;;;;;;8.40;8.40;;;;;-143.47;100.00;63865.75;2111168;28;8735;-63
2023/07/06 03:08:05;;;;;;;;;6.20;6.20;;;;;-143.47;100.00;63865.75;2102466;28;9345;-64
2023/07/06 03:09:09;;;;;;;;;6.80;6.80;;;;;-143.47;100.00;63865.75;2102123;28;8934;-64
2023/07/06 03:10:10;;;;;;;;;13.20;13.20;;;;;-143.47;100.00;63865.75;2084308;28;8717;-64
2023/07/06 03:11:10;;;;;;;;;11.00;10.50;;;;;-143.47;100.00;63865.75;2092162;28;8831;-64
2023/07/06 03:12:11;;;;;;;;;11.00;11.00;;;;;-143.47;100.00;63865.75;2111005;28;8790;-64
2023/07/06 03:13:12;;;;;;;;;10.25;10.25;;;;;-143.47;100.00;63865.75;2118057;28;8741;-63
2023/07/06 03:14:12;;;;;;;;;9.20;9.00;;;;;-143.47;100.00;63865.75;2119621;28;8697;-63
2023/07/06 03:15:15;;;;;;;;;10.50;10.00;;;;;-143.47;100.00;63865.75;2113844;28;8771;-64
2023/07/06 03:16:15;;;;;;;;;7.80;7.80;;;;;-143.47;100.00;63865.75;2116008;28;8706;-64
2023/07/06 03:17:16;;;;;;;;;7.75;7.75;;;;;-143.47;100.00;63865.75;2119298;28;8752;-64
2023/07/06 03:18:18;;;;;;;;;9.00;7.50;;;;;-143.47;100.00;63865.75;2119413;28;8857;-64
2023/07/06 03:19:19;;;;;;;;;9.00;7.00;;;;;-143.47;100.00;63865.75;2106504;28;8761;-64
2023/07/06 03:20:20;;;;;;;;;10.80;10.00;;;;;-143.47;100.00;63865.75;2102636;28;8670;-64
2023/07/06 03:21:20;;;;;;;;;7.00;7.00;;;;;-143.47;100.00;63865.75;2109221;28;8687;-64
2023/07/06 03:22:21;;;;;;;;;9.25;8.25;;;;;-143.47;100.00;63865.75;2108856;28;8747;-64
2023/07/06 03:23:22;;;;;;;;;5.25;5.25;;;;;-143.47;100.00;63865.75;2102351;28;8839;-65
2023/07/06 03:24:23;;;;;;;;;8.40;8.40;;;;;-143.47;100.00;63865.75;2101934;28;8773;-64
2023/07/06 03:25:25;;;;;;;;;4.60;4.60;;;;;-143.47;100.00;63865.75;2111033;28;8691;-63
2023/07/06 03:26:25;;;;;;;;;8.00;6.00;;;;;-143.47;100.00;63865.75;2119159;28;8741;-63
2023/07/06 03:27:28;;;;;;;;;9.00;9.00;;;;;-143.47;100.00;63865.75;2119429;28;8777;-64
2023/07/06 03:28:29;;;;;;;;;9.80;9.00;;;;;-143.47;100.00;63865.75;2099921;28;8742;-64
2023/07/06 03:29:30;;;;;;;;;4.50;4.50;;;;;-143.47;100.00;63865.75;2094606;28;8796;-64
2023/07/06 03:30:31;;;;;;;;;7.80;7.80;;;;;-143.47;100.00;63865.75;2101897;28;8706;-65
2023/07/06 03:31:32;;;;;;;;;8.75;8.00;;;;;-143.47;100.00;63865.75;2101937;28;8796;-64
2023/07/06 03:32:37;;;;;;;;;8.60;7.00;;;;;-143.47;100.00;63865.75;2110892;28;8708;-65
2023/07/06 03:33:41;;;;;;;;;9.40;7.40;;;;;-143.47;100.00;63865.75;2112305;28;8904;-65
2023/07/06 03:34:41;;;;;;;;;7.00;7.00;;;;;-143.47;100.00;63865.75;2117969;28;8725;-65
2023/07/06 03:35:41;;;;;;;;;10.00;8.00;;;;;-143.47;100.00;63865.75;2115713;28;8772;-65
2023/07/06 03:36:42;;;;;;;;;7.75;7.75;;;;;-143.47;100.00;63865.75;2110485;28;8802;-65
2023/07/06 03:37:43;;;;;;;;;9.75;9.00;;;;;-143.47;100.00;63865.75;2110056;28;8743;-65
2023/07/06 03:38:44;;;;;;;;;10.20;9.00;;;;;-143.47;100.00;63865.75;2116607;28;8744;-65
2023/07/06 03:39:47;;;;;;;;;9.00;8.75;;;;;-143.47;100.00;63865.75;2110824;28;8736;-64
2023/07/06 03:40:49;;;;;;;;;7.20;7.20;;;;;-143.47;100.00;63865.75;2110980;28;8854;-64
2023/07/06 03:41:49;;;;;;;;;9.80;9.80;;;;;-143.47;100.00;63865.75;2110552;28;8765;-63
2023/07/06 03:42:50;;;;;;;;;9.75;8.75;;;;;-143.47;100.00;63865.75;2110771;28;8747;-64
2023/07/06 03:43:56;;;;;;;;;10.25;9.50;;;;;-143.47;100.00;63865.75;2109345;28;8790;-63
2023/07/06 03:44:56;;;;;;;;;7.20;6.80;;;;;-143.47;100.00;63865.75;2114980;28;9887;-63
2023/07/06 03:45:57;;;;;;;;;10.75;10.00;;;;;-143.47;100.00;63865.75;2119350;28;8752;-63
2023/07/06 03:46:58;;;;;;;;;10.75;8.75;;;;;-143.47;100.00;63865.75;2119222;28;8781;-62
2023/07/06 03:47:59;;;;;;;;;8.20;8.00;;;;;-143.47;100.00;63865.75;2119670;28;8701;-63
2023/07/06 03:49:08;;;;;;;;;10.00;7.40;;;;;-143.47;100.00;63865.75;2119218;28;8717;-62
2023/07/06 03:50:09;;;;;;;;;10.20;9.00;;;;;-143.47;100.00;63865.75;2119225;28;8740;-62
2023/07/06 03:51:11;;;;;;;;;4.60;4.60;;;;;-143.47;100.00;63865.75;2119494;28;9218;-63
2023/07/06 03:52:13;;;;;;;;;7.60;6.20;;;;;-143.47;100.00;63865.75;2092734;28;8696;-62
2023/07/06 03:53:14;;;;;;;;;8.60;8.60;;;;;-143.47;100.00;63865.75;2093117;28;8696;-63
2023/07/06 03:54:15;;;;;;;;;10.80;10.80;;;;;-143.47;100.00;63865.75;2118977;28;9189;-63
2023/07/06 03:55:22;;;;;;;;;11.25;11.25;;;;;-143.47;100.00;63865.75;2110642;28;8754;-62
2023/07/06 03:56:27;;;;;;;;;13.80;10.80;;;;;-143.47;100.00;63865.75;2110895;28;11517;-62
2023/07/06 03:57:27;;;;;;;;;14.40;12.80;;;;;-143.47;100.00;63865.75;2119356;28;8666;-64
2023/07/06 03:58:29;;;;;;;;;11.00;10.75;;;;;-143.47;100.00;63865.75;2119291;28;8807;-63
2023/07/06 03:59:31;;;;;;;;;11.00;9.80;;;;;-143.47;100.00;63865.75;2107603;28;8722;-64
2023/07/06 04:00:34;;;;;;;;;12.00;11.40;;;;;-143.47;100.00;63865.75;2110271;28;8745;-62
2023/07/06 04:01:36;;;;;;;;;10.60;9.80;;;;;-143.47;100.00;63865.75;2119166;28;8810;-63
2023/07/06 04:02:36;;;;;;;;;8.40;8.20;;;;;-143.47;100.00;63865.75;2110217;28;9276;-63
2023/07/06 04:03:37;;;;;;;;;11.25;10.25;;;;;-143.47;100.00;63865.75;2111184;28;8774;-64
2023/07/06 04:04:41;;;;;;;;;10.00;9.00;;;;;-143.47;100.00;63865.75;2119224;28;8773;-63
2023/07/06 04:05:47;;;;;;;;;13.00;11.80;;;;;-143.47;100.00;63865.75;2093092;28;8715;-63
2023/07/06 04:06:48;;;;;;;;;10.40;10.20;;;;;-143.47;100.00;63865.75;2088673;28;8730;-63
2023/07/06 04:07:52;;;;;;;;;10.75;10.75;;;;;-143.47;100.00;63865.75;2101698;28;8777;-63
2023/07/06 04:08:56;;;;;;;;;11.80;10.80;;;;;-143.47;100.00;63865.75;2101818;28;9284;-64
2023/07/06 04:09:57;;;;;;;;;10.60;9.60;;;;;-143.47;100.00;63865.75;2111096;28;8719;-64
2023/07/06 04:10:57;;;;;;;;;10.25;9.50;;;;;-143.47;100.00;63865.75;2109966;28;8878;-63
2023/07/06 04:11:57;;;;;;;;;8.50;8.25;;;;;-143.47;100.00;63865.75;2110063;28;8774;-64
2023/07/06 04:12:58;;;;;;;;;15.50;13.75;;;;;-143.47;100.00;63865.75;2119325;28;8729;-64
2023/07/06 04:13:59;;;;;;;;;12.75;11.50;;;;;-143.47;100.00;63865.75;2119303;28;8789;-63
2023/07/06 04:14:59;;;;;;;;;14.00;14.00;;;;;-143.47;100.00;63865.75;2114923;28;8732;-63
2023/07/06 04:16:00;;;;;;;;;11.75;11.75;;;;;-143.47;100.00;63865.75;2115259;28;8764;-63
2023/07/06 04:17:01;;;;;;;;;12.75;12.25;;;;;-143.47;100.00;63865.75;2119073;27;8733;-62
2023/07/06 04:18:03;;;;;;;;;11.60;11.00;;;;;-143.47;100.00;63865.75;2119998;28;8666;-64
2023/07/06 04:19:03;;;;;;;;;11.20;11.20;;;;;-143.47;100.00;63865.75;2119243;28;8686;-63
2023/07/06 04:20:11;;;;;;;;;14.25;13.25;;;;;-143.47;100.00;63865.75;2118814;28;8749;-64
2023/07/06 04:21:19;;;;;;;;;13.60;11.60;;;;;-143.47;100.00;63865.75;2119019;28;9293;-62
2023/07/06 04:22:19;;;;;;;;;13.40;12.40;;;;;-143.47;100.00;63865.75;2118944;28;8650;-62
2023/07/06 04:23:20;;;;;;;;;7.25;7.25;;;;;-143.47;100.00;63865.75;2118796;28;8775;-62
2023/07/06 04:24:21;;;;;;;;;11.50;11.50;;;;;-143.47;100.00;63865.75;2119036;28;9226;-62
2023/07/06 04:25:29;;;;;;;;;12.60;11.20;;;;;-143.47;100.00;63865.75;2119226;28;8720;-62
2023/07/06 04:26:29;;;;;;;;;13.00;10.80;;;;;-143.47;100.00;63865.75;2118984;28;9324;-62
2023/07/06 04:27:30;;;;;;;;;9.25;9.25;;;;;-143.47;100.00;63865.75;2119189;28;8781;-64
2023/07/06 04:28:30;;;;;;;;;11.25;10.75;;;;;-143.47;100.00;63865.75;2118853;28;8725;-63
2023/07/06 04:29:31;;;;;;;;;12.75;12.75;;;;;-143.47;100.00;63865.75;2119174;28;8734;-63
2023/07/06 04:30:33;;;;;;;;;12.00;11.00;;;;;-143.47;100.00;63865.75;2107816;28;8782;-64
2023/07/06 04:31:34;;;;;;;;;13.60;13.60;;;;;-143.47;100.00;63865.75;2103429;28;8805;-64
2023/07/06 04:32:34;;;;;;;;;13.50;13.00;;;;;-143.47;100.00;63865.75;2094880;28;8767;-62
2023/07/06 04:33:34;;;;;;;;;13.00;11.75;;;;;-143.47;100.00;63865.75;2092802;28;8866;-63
2023/07/06 04:34:36;;;;;;;;;14.00;10.75;;;;;-143.47;100.00;63865.75;2110238;28;8755;-63
2023/07/06 04:35:36;;;;;;;;;13.60;12.20;;;;;-143.47;100.00;63865.75;2114755;28;8704;-63
2023/07/06 04:36:39;;;;;;;;;14.00;13.25;;;;;-143.47;100.00;63865.75;2110192;28;8720;-63
2023/07/06 04:37:41;;;;;;;;;10.80;10.80;;;;;-143.47;100.00;63865.75;2110174;28;8820;-64
2023/07/06 04:38:41;;;;;;;;;12.00;12.00;;;;;-143.47;100.00;63865.75;2118730;28;8674;-63
2023/07/06 04:39:42;;;;;;;;;13.50;12.25;;;;;-143.47;100.00;63865.75;2119120;28;8772;-63
2023/07/06 04:40:43;;;;;;;;;11.25;8.75;;;;;-143.47;100.00;63865.75;2118936;28;8852;-64
2023/07/06 04:41:43;;;;;;;;;12.50;10.00;;;;;-143.47;100.00;63865.75;2105391;28;8832;-63
2023/07/06 04:42:48;;;;;;;;;9.00;7.75;;;;;-143.47;100.00;63865.75;2101550;28;8780;-64
2023/07/06 04:43:49;;;;;;;;;13.80;11.20;;;;;-143.47;100.00;63865.75;2118603;28;8714;-62
2023/07/06 04:44:49;;;;;;;;;13.75;13.75;;;;;-143.47;100.00;63865.75;2119008;28;8791;-63
2023/07/06 04:45:50;;;;;;;;;14.75;13.00;;;;;-143.47;100.00;63865.75;2119491;28;8779;-62
2023/07/06 04:46:50;;;;;;;;;11.75;11.75;;;;;-143.47;100.00;63865.75;2119248;28;8753;-62
2023/07/06 04:47:51;;;;;;;;;9.50;9.50;;;;;-143.47;100.00;63865.75;2108178;28;8841;-62
2023/07/06 04:48:53;;;;;;;;;11.80;11.80;;;;;-143.47;100.00;63865.75;2109835;28;8762;-62